KEKS

Ennis - Big Sky Airport

Ennis, Montana, USA
METAR KEKS 191515Z AUTO 00000KT 5SM BR CLR 12/10 A3036 RMK AO2
Observed Flight Rules
Aug-19 @ 15:15 UTC (22 minutes ago) Marginal Visual Flight Rules
Visibility Clouds Conditions
5 miles
  • Clear skies
  • Mist
Temperatures Readings
Current 12°C / 54°F
Dewpoint 10°C / 50°F
Humidity 88%
Altimeter 30.36" Hg
Pressure 1028 hPa
Elevation 1641
METAR KEKS 191515Z AUTO 00000KT 5SM BR CLR 12/10 A3036 RMK AO2
Observed Flight Rules
Aug-19 @ 15:15 UTC
(22 minutes ago)
MVFR
Clouds
  • Clear skies
Conditions
  • Mist
Temperature Dewpoint
12°C / 54°F 10°C / 50°F
Humidity Altimeter Pressure
88% 30.36" Hg 1028 hPa